sensor_id;sensor_type;location;lat;lon;timestamp;P1;durP1;ratioP1;P2;durP2;ratioP2
42602;SDS011;28233;55.748;48.752;2022-08-03T00:01:47;31.27;;;20.48;;
42602;SDS011;28233;55.748;48.752;2022-08-03T00:03:49;36.25;;;22.83;;
42602;SDS011;28233;55.748;48.752;2022-08-03T00:05:52;34.30;;;21.42;;
42602;SDS011;28233;55.748;48.752;2022-08-03T00:08:05;29.77;;;21.02;;
42602;SDS011;28233;55.748;48.752;2022-08-03T00:10:08;32.55;;;20.50;;
42602;SDS011;28233;55.748;48.752;2022-08-03T00:12:11;30.70;;;21.35;;
42602;SDS011;28233;55.748;48.752;2022-08-03T00:14:14;28.63;;;20.05;;
42602;SDS011;28233;55.748;48.752;2022-08-03T00:16:17;29.35;;;19.35;;
42602;SDS011;28233;55.748;48.752;2022-08-03T00:18:20;27.88;;;20.33;;
42602;SDS011;28233;55.748;48.752;2022-08-03T00:20:23;27.85;;;17.75;;
42602;SDS011;28233;55.748;48.752;2022-08-03T00:22:26;35.42;;;19.48;;
42602;SDS011;28233;55.748;48.752;2022-08-03T00:24:28;26.05;;;17.77;;
42602;SDS011;28233;55.748;48.752;2022-08-03T00:26:32;27.70;;;18.30;;
42602;SDS011;28233;55.748;48.752;2022-08-03T00:28:35;30.17;;;18.27;;
42602;SDS011;28233;55.748;48.752;2022-08-03T00:30:37;27.48;;;17.75;;
42602;SDS011;28233;55.748;48.752;2022-08-03T00:32:42;27.42;;;16.63;;
42602;SDS011;28233;55.748;48.752;2022-08-03T00:34:46;24.08;;;16.20;;
42602;SDS011;28233;55.748;48.752;2022-08-03T00:36:59;22.90;;;16.88;;
42602;SDS011;28233;55.748;48.752;2022-08-03T00:39:02;25.33;;;16.52;;
42602;SDS011;28233;55.748;48.752;2022-08-03T00:41:05;25.35;;;16.05;;
42602;SDS011;28233;55.748;48.752;2022-08-03T00:43:08;25.70;;;16.40;;
42602;SDS011;28233;55.748;48.752;2022-08-03T00:45:11;25.85;;;15.40;;
42602;SDS011;28233;55.748;48.752;2022-08-03T00:47:14;26.35;;;15.55;;
42602;SDS011;28233;55.748;48.752;2022-08-03T00:49:16;21.77;;;15.43;;
42602;SDS011;28233;55.748;48.752;2022-08-03T00:51:19;24.17;;;14.80;;
42602;SDS011;28233;55.748;48.752;2022-08-03T00:53:23;20.42;;;15.85;;
42602;SDS011;28233;55.748;48.752;2022-08-03T00:55:26;25.85;;;15.40;;
42602;SDS011;28233;55.748;48.752;2022-08-03T00:57:29;21.75;;;15.82;;
42602;SDS011;28233;55.748;48.752;2022-08-03T00:59:33;22.60;;;14.98;;
42602;SDS011;28233;55.748;48.752;2022-08-03T01:01:36;26.92;;;16.27;;
42602;SDS011;28233;55.748;48.752;2022-08-03T01:03:38;23.33;;;15.45;;
42602;SDS011;28233;55.748;48.752;2022-08-03T01:12:28;23.17;;;15.32;;
42602;SDS011;28233;55.748;48.752;2022-08-03T01:17:08;26.80;;;15.23;;
42602;SDS011;28233;55.748;48.752;2022-08-03T01:19:23;30.02;;;17.27;;
42602;SDS011;28233;55.748;48.752;2022-08-03T01:29:03;31.38;;;19.27;;
42602;SDS011;28233;55.748;48.752;2022-08-03T01:31:17;26.02;;;18.45;;
42602;SDS011;28233;55.748;48.752;2022-08-03T01:33:28;29.40;;;17.95;;
42602;SDS011;28233;55.748;48.752;2022-08-03T01:35:44;25.20;;;17.00;;
42602;SDS011;28233;55.748;48.752;2022-08-03T01:37:50;28.10;;;16.88;;
42602;SDS011;28233;55.748;48.752;2022-08-03T01:39:56;30.48;;;18.58;;
42602;SDS011;28233;55.748;48.752;2022-08-03T01:42:05;28.05;;;19.30;;
42602;SDS011;28233;55.748;48.752;2022-08-03T01:44:09;24.65;;;17.02;;
42602;SDS011;28233;55.748;48.752;2022-08-03T01:46:31;32.55;;;19.05;;
42602;SDS011;28233;55.748;48.752;2022-08-03T01:48:36;25.05;;;16.23;;
42602;SDS011;28233;55.748;48.752;2022-08-03T01:50:40;36.92;;;18.27;;
42602;SDS011;28233;55.748;48.752;2022-08-03T01:52:44;30.50;;;18.63;;
42602;SDS011;28233;55.748;48.752;2022-08-03T01:54:49;23.52;;;16.30;;
42602;SDS011;28233;55.748;48.752;2022-08-03T01:56:53;27.95;;;17.60;;
42602;SDS011;28233;55.748;48.752;2022-08-03T01:58:59;24.60;;;16.95;;
42602;SDS011;28233;55.748;48.752;2022-08-03T02:01:04;21.80;;;15.60;;
42602;SDS011;28233;55.748;48.752;2022-08-03T02:03:08;30.08;;;16.48;;
42602;SDS011;28233;55.748;48.752;2022-08-03T02:05:13;25.15;;;15.88;;
42602;SDS011;28233;55.748;48.752;2022-08-03T02:07:17;27.58;;;16.25;;
42602;SDS011;28233;55.748;48.752;2022-08-03T02:09:21;21.38;;;14.82;;
42602;SDS011;28233;55.748;48.752;2022-08-03T02:11:25;20.55;;;13.98;;
42602;SDS011;28233;55.748;48.752;2022-08-03T02:13:28;24.73;;;15.65;;
42602;SDS011;28233;55.748;48.752;2022-08-03T02:15:35;21.67;;;15.23;;
42602;SDS011;28233;55.748;48.752;2022-08-03T02:17:39;26.02;;;14.98;;
42602;SDS011;28233;55.748;48.752;2022-08-03T02:19:43;24.13;;;16.85;;
42602;SDS011;28233;55.748;48.752;2022-08-03T02:21:46;24.30;;;15.88;;
42602;SDS011;28233;55.748;48.752;2022-08-03T02:24:02;23.60;;;16.63;;
42602;SDS011;28233;55.748;48.752;2022-08-03T02:26:08;22.70;;;15.10;;
42602;SDS011;28233;55.748;48.752;2022-08-03T02:28:17;22.67;;;15.82;;
42602;SDS011;28233;55.748;48.752;2022-08-03T02:30:22;19.02;;;13.50;;
42602;SDS011;28233;55.748;48.752;2022-08-03T02:32:35;21.13;;;14.20;;
42602;SDS011;28233;55.748;48.752;2022-08-03T02:34:41;17.70;;;12.02;;
42602;SDS011;28233;55.748;48.752;2022-08-03T02:36:48;18.77;;;12.13;;
42602;SDS011;28233;55.748;48.752;2022-08-03T02:38:55;21.60;;;13.98;;
42602;SDS011;28233;55.748;48.752;2022-08-03T02:41:01;20.95;;;13.27;;
42602;SDS011;28233;55.748;48.752;2022-08-03T02:43:09;15.73;;;11.13;;
42602;SDS011;28233;55.748;48.752;2022-08-03T02:45:17;22.63;;;13.98;;
42602;SDS011;28233;55.748;48.752;2022-08-03T02:47:22;21.85;;;13.55;;
42602;SDS011;28233;55.748;48.752;2022-08-03T02:49:28;24.23;;;12.82;;
42602;SDS011;28233;55.748;48.752;2022-08-03T02:51:51;21.35;;;13.65;;
42602;SDS011;28233;55.748;48.752;2022-08-03T02:53:55;23.00;;;12.73;;
42602;SDS011;28233;55.748;48.752;2022-08-03T02:56:00;17.27;;;12.50;;
42602;SDS011;28233;55.748;48.752;2022-08-03T02:58:05;19.55;;;13.35;;
42602;SDS011;28233;55.748;48.752;2022-08-03T03:00:09;17.02;;;12.45;;
42602;SDS011;28233;55.748;48.752;2022-08-03T03:02:13;18.63;;;12.60;;
42602;SDS011;28233;55.748;48.752;2022-08-03T03:04:18;15.07;;;10.98;;
42602;SDS011;28233;55.748;48.752;2022-08-03T03:06:26;19.38;;;11.73;;
42602;SDS011;28233;55.748;48.752;2022-08-03T03:08:31;15.73;;;11.82;;
42602;SDS011;28233;55.748;48.752;2022-08-03T03:10:36;17.60;;;11.75;;
42602;SDS011;28233;55.748;48.752;2022-08-03T03:12:38;17.70;;;11.40;;
42602;SDS011;28233;55.748;48.752;2022-08-03T03:14:42;13.15;;;10.50;;
42602;SDS011;28233;55.748;48.752;2022-08-03T03:16:45;12.77;;;10.93;;
42602;SDS011;28233;55.748;48.752;2022-08-03T03:18:58;15.55;;;10.73;;
42602;SDS011;28233;55.748;48.752;2022-08-03T03:21:03;16.20;;;11.13;;
42602;SDS011;28233;55.748;48.752;2022-08-03T03:23:08;20.60;;;10.40;;
42602;SDS011;28233;55.748;48.752;2022-08-03T03:25:12;15.07;;;10.23;;
42602;SDS011;28233;55.748;48.752;2022-08-03T03:27:15;18.38;;;9.75;;
42602;SDS011;28233;55.748;48.752;2022-08-03T03:29:18;18.42;;;10.23;;
42602;SDS011;28233;55.748;48.752;2022-08-03T03:31:21;14.85;;;8.80;;
42602;SDS011;28233;55.748;48.752;2022-08-03T03:33:24;12.13;;;9.82;;
42602;SDS011;28233;55.748;48.752;2022-08-03T03:35:29;12.77;;;8.65;;
42602;SDS011;28233;55.748;48.752;2022-08-03T03:37:39;16.67;;;9.02;;
42602;SDS011;28233;55.748;48.752;2022-08-03T03:39:42;14.73;;;9.10;;
42602;SDS011;28233;55.748;48.752;2022-08-03T03:41:44;13.30;;;9.90;;
42602;SDS011;28233;55.748;48.752;2022-08-03T03:43:48;15.57;;;9.05;;
42602;SDS011;28233;55.748;48.752;2022-08-03T03:45:52;12.50;;;9.18;;
42602;SDS011;28233;55.748;48.752;2022-08-03T03:47:56;13.30;;;8.73;;
42602;SDS011;28233;55.748;48.752;2022-08-03T03:50:00;9.98;;;7.93;;
42602;SDS011;28233;55.748;48.752;2022-08-03T03:52:05;11.52;;;8.75;;
42602;SDS011;28233;55.748;48.752;2022-08-03T03:54:07;13.52;;;8.73;;
42602;SDS011;28233;55.748;48.752;2022-08-03T03:56:10;14.73;;;9.57;;
42602;SDS011;28233;55.748;48.752;2022-08-03T03:58:12;10.20;;;7.63;;
42602;SDS011;28233;55.748;48.752;2022-08-03T04:00:16;13.48;;;8.45;;
42602;SDS011;28233;55.748;48.752;2022-08-03T04:02:19;10.85;;;8.13;;
42602;SDS011;28233;55.748;48.752;2022-08-03T04:04:22;13.15;;;9.25;;
42602;SDS011;28233;55.748;48.752;2022-08-03T04:06:43;12.95;;;9.10;;
42602;SDS011;28233;55.748;48.752;2022-08-03T04:09:04;16.48;;;8.98;;
42602;SDS011;28233;55.748;48.752;2022-08-03T04:11:29;16.80;;;9.10;;
42602;SDS011;28233;55.748;48.752;2022-08-03T04:16:03;13.50;;;8.98;;
42602;SDS011;28233;55.748;48.752;2022-08-03T04:18:08;15.32;;;9.63;;
42602;SDS011;28233;55.748;48.752;2022-08-03T04:20:15;13.40;;;9.38;;
42602;SDS011;28233;55.748;48.752;2022-08-03T04:22:23;11.65;;;8.20;;
42602;SDS011;28233;55.748;48.752;2022-08-03T04:24:29;14.90;;;8.02;;
42602;SDS011;28233;55.748;48.752;2022-08-03T04:26:41;13.15;;;9.05;;
42602;SDS011;28233;55.748;48.752;2022-08-03T04:28:53;14.43;;;8.10;;
42602;SDS011;28233;55.748;48.752;2022-08-03T04:30:56;13.73;;;7.95;;
42602;SDS011;28233;55.748;48.752;2022-08-03T04:32:59;15.48;;;8.23;;
42602;SDS011;28233;55.748;48.752;2022-08-03T04:35:04;13.80;;;8.07;;
42602;SDS011;28233;55.748;48.752;2022-08-03T04:37:10;11.27;;;7.93;;
42602;SDS011;28233;55.748;48.752;2022-08-03T04:39:17;15.30;;;8.80;;
42602;SDS011;28233;55.748;48.752;2022-08-03T04:41:25;14.85;;;8.30;;
42602;SDS011;28233;55.748;48.752;2022-08-03T04:43:29;13.10;;;7.65;;
42602;SDS011;28233;55.748;48.752;2022-08-03T04:45:35;13.18;;;7.90;;
42602;SDS011;28233;55.748;48.752;2022-08-03T04:47:37;10.30;;;8.10;;
42602;SDS011;28233;55.748;48.752;2022-08-03T04:49:41;9.85;;;7.97;;
42602;SDS011;28233;55.748;48.752;2022-08-03T04:51:45;12.15;;;7.32;;
42602;SDS011;28233;55.748;48.752;2022-08-03T04:53:49;12.07;;;8.55;;
42602;SDS011;28233;55.748;48.752;2022-08-03T04:55:51;12.90;;;7.70;;
42602;SDS011;28233;55.748;48.752;2022-08-03T04:57:54;14.20;;;8.60;;
42602;SDS011;28233;55.748;48.752;2022-08-03T04:59:58;13.88;;;8.23;;
42602;SDS011;28233;55.748;48.752;2022-08-03T05:02:07;10.45;;;8.32;;
42602;SDS011;28233;55.748;48.752;2022-08-03T05:04:10;10.60;;;7.32;;
42602;SDS011;28233;55.748;48.752;2022-08-03T05:06:12;11.25;;;7.40;;
42602;SDS011;28233;55.748;48.752;2022-08-03T05:08:17;10.73;;;6.88;;
42602;SDS011;28233;55.748;48.752;2022-08-03T05:10:28;10.10;;;8.05;;
42602;SDS011;28233;55.748;48.752;2022-08-03T05:12:31;13.43;;;8.57;;
42602;SDS011;28233;55.748;48.752;2022-08-03T05:14:34;9.90;;;7.25;;
42602;SDS011;28233;55.748;48.752;2022-08-03T05:16:41;9.60;;;6.80;;
42602;SDS011;28233;55.748;48.752;2022-08-03T05:18:43;9.80;;;6.80;;
42602;SDS011;28233;55.748;48.752;2022-08-03T05:20:47;10.98;;;6.82;;
42602;SDS011;28233;55.748;48.752;2022-08-03T05:22:49;12.88;;;7.28;;
42602;SDS011;28233;55.748;48.752;2022-08-03T05:24:52;11.60;;;6.55;;
42602;SDS011;28233;55.748;48.752;2022-08-03T05:26:55;7.60;;;6.68;;
42602;SDS011;28233;55.748;48.752;2022-08-03T05:28:57;9.32;;;6.30;;
42602;SDS011;28233;55.748;48.752;2022-08-03T05:31:00;6.93;;;5.85;;
42602;SDS011;28233;55.748;48.752;2022-08-03T05:33:03;9.55;;;6.45;;
42602;SDS011;28233;55.748;48.752;2022-08-03T05:35:06;10.20;;;6.57;;
42602;SDS011;28233;55.748;48.752;2022-08-03T05:37:29;7.70;;;6.72;;
42602;SDS011;28233;55.748;48.752;2022-08-03T05:39:32;12.15;;;7.03;;
42602;SDS011;28233;55.748;48.752;2022-08-03T05:41:35;8.45;;;7.05;;
42602;SDS011;28233;55.748;48.752;2022-08-03T05:43:38;14.45;;;6.38;;
42602;SDS011;28233;55.748;48.752;2022-08-03T05:45:41;9.98;;;5.97;;
42602;SDS011;28233;55.748;48.752;2022-08-03T05:47:44;8.00;;;6.55;;
42602;SDS011;28233;55.748;48.752;2022-08-03T05:49:47;15.82;;;6.82;;
42602;SDS011;28233;55.748;48.752;2022-08-03T05:51:49;12.82;;;6.63;;
42602;SDS011;28233;55.748;48.752;2022-08-03T05:56:14;15.10;;;6.95;;
42602;SDS011;28233;55.748;48.752;2022-08-03T05:58:17;9.95;;;6.38;;
42602;SDS011;28233;55.748;48.752;2022-08-03T06:00:20;13.48;;;8.13;;
42602;SDS011;28233;55.748;48.752;2022-08-03T06:02:26;10.23;;;6.50;;
42602;SDS011;28233;55.748;48.752;2022-08-03T06:04:29;13.25;;;6.55;;
42602;SDS011;28233;55.748;48.752;2022-08-03T06:06:31;11.85;;;6.03;;
42602;SDS011;28233;55.748;48.752;2022-08-03T06:08:34;10.20;;;6.32;;
42602;SDS011;28233;55.748;48.752;2022-08-03T06:10:37;11.60;;;6.85;;
42602;SDS011;28233;55.748;48.752;2022-08-03T06:12:40;9.35;;;6.18;;
42602;SDS011;28233;55.748;48.752;2022-08-03T06:14:43;9.18;;;6.13;;
42602;SDS011;28233;55.748;48.752;2022-08-03T06:16:45;7.45;;;5.40;;
42602;SDS011;28233;55.748;48.752;2022-08-03T06:18:48;7.90;;;4.53;;
42602;SDS011;28233;55.748;48.752;2022-08-03T06:20:51;10.23;;;6.28;;
42602;SDS011;28233;55.748;48.752;2022-08-03T06:22:54;8.77;;;5.40;;
42602;SDS011;28233;55.748;48.752;2022-08-03T06:25:02;8.18;;;5.00;;
42602;SDS011;28233;55.748;48.752;2022-08-03T06:27:12;9.95;;;4.93;;
42602;SDS011;28233;55.748;48.752;2022-08-03T06:29:14;6.65;;;5.22;;
42602;SDS011;28233;55.748;48.752;2022-08-03T06:31:17;10.73;;;5.40;;
42602;SDS011;28233;55.748;48.752;2022-08-03T06:33:20;7.25;;;5.35;;
42602;SDS011;28233;55.748;48.752;2022-08-03T06:35:23;8.70;;;5.32;;
42602;SDS011;28233;55.748;48.752;2022-08-03T06:37:25;9.75;;;5.97;;
42602;SDS011;28233;55.748;48.752;2022-08-03T06:39:28;7.28;;;5.03;;
42602;SDS011;28233;55.748;48.752;2022-08-03T06:41:31;8.63;;;5.35;;
42602;SDS011;28233;55.748;48.752;2022-08-03T06:43:39;7.72;;;6.40;;
42602;SDS011;28233;55.748;48.752;2022-08-03T06:46:02;13.85;;;5.90;;
42602;SDS011;28233;55.748;48.752;2022-08-03T06:48:07;8.85;;;5.65;;
42602;SDS011;28233;55.748;48.752;2022-08-03T06:50:13;12.25;;;6.22;;
42602;SDS011;28233;55.748;48.752;2022-08-03T06:52:19;11.05;;;6.00;;
42602;SDS011;28233;55.748;48.752;2022-08-03T06:54:39;6.72;;;6.00;;
42602;SDS011;28233;55.748;48.752;2022-08-03T06:56:42;9.27;;;6.97;;
42602;SDS011;28233;55.748;48.752;2022-08-03T06:58:45;32.30;;;12.80;;
42602;SDS011;28233;55.748;48.752;2022-08-03T07:00:48;15.40;;;6.32;;
42602;SDS011;28233;55.748;48.752;2022-08-03T07:02:51;7.50;;;5.47;;
42602;SDS011;28233;55.748;48.752;2022-08-03T07:04:59;9.30;;;5.97;;
42602;SDS011;28233;55.748;48.752;2022-08-03T07:07:01;10.27;;;6.05;;
42602;SDS011;28233;55.748;48.752;2022-08-03T07:09:04;8.73;;;5.72;;
42602;SDS011;28233;55.748;48.752;2022-08-03T07:11:07;11.07;;;7.15;;
42602;SDS011;28233;55.748;48.752;2022-08-03T07:13:10;11.32;;;7.28;;
42602;SDS011;28233;55.748;48.752;2022-08-03T07:15:12;13.02;;;7.35;;
42602;SDS011;28233;55.748;48.752;2022-08-03T07:17:35;11.63;;;8.38;;
42602;SDS011;28233;55.748;48.752;2022-08-03T07:19:38;19.63;;;10.02;;
42602;SDS011;28233;55.748;48.752;2022-08-03T07:21:41;10.93;;;6.97;;
42602;SDS011;28233;55.748;48.752;2022-08-03T07:23:43;10.85;;;5.55;;
42602;SDS011;28233;55.748;48.752;2022-08-03T07:25:46;8.80;;;5.70;;
42602;SDS011;28233;55.748;48.752;2022-08-03T07:27:49;9.13;;;6.30;;
42602;SDS011;28233;55.748;48.752;2022-08-03T07:29:53;13.20;;;5.55;;
42602;SDS011;28233;55.748;48.752;2022-08-03T07:31:56;10.23;;;5.20;;
42602;SDS011;28233;55.748;48.752;2022-08-03T07:33:59;10.50;;;5.15;;
42602;SDS011;28233;55.748;48.752;2022-08-03T07:36:02;7.18;;;5.78;;
42602;SDS011;28233;55.748;48.752;2022-08-03T07:38:05;10.60;;;6.15;;
42602;SDS011;28233;55.748;48.752;2022-08-03T07:40:07;10.77;;;5.60;;
42602;SDS011;28233;55.748;48.752;2022-08-03T07:42:12;9.05;;;5.35;;
42602;SDS011;28233;55.748;48.752;2022-08-03T07:44:16;11.30;;;5.72;;
42602;SDS011;28233;55.748;48.752;2022-08-03T07:46:22;8.73;;;5.88;;
42602;SDS011;28233;55.748;48.752;2022-08-03T07:48:27;8.52;;;6.07;;
42602;SDS011;28233;55.748;48.752;2022-08-03T07:50:30;6.72;;;5.88;;
42602;SDS011;28233;55.748;48.752;2022-08-03T07:52:32;11.88;;;6.90;;
42602;SDS011;28233;55.748;48.752;2022-08-03T07:55:10;15.10;;;5.45;;
42602;SDS011;28233;55.748;48.752;2022-08-03T07:59:34;8.85;;;5.80;;
42602;SDS011;28233;55.748;48.752;2022-08-03T08:01:57;10.10;;;6.03;;
42602;SDS011;28233;55.748;48.752;2022-08-03T08:03:59;10.27;;;6.43;;
42602;SDS011;28233;55.748;48.752;2022-08-03T08:06:02;8.02;;;5.93;;
42602;SDS011;28233;55.748;48.752;2022-08-03T08:08:06;8.68;;;5.85;;
42602;SDS011;28233;55.748;48.752;2022-08-03T08:10:09;10.55;;;6.38;;
42602;SDS011;28233;55.748;48.752;2022-08-03T08:12:12;9.68;;;6.10;;
42602;SDS011;28233;55.748;48.752;2022-08-03T08:14:17;7.40;;;5.70;;
42602;SDS011;28233;55.748;48.752;2022-08-03T08:16:19;8.80;;;5.68;;
42602;SDS011;28233;55.748;48.752;2022-08-03T08:18:22;13.55;;;6.68;;
42602;SDS011;28233;55.748;48.752;2022-08-03T08:20:29;8.98;;;6.65;;
42602;SDS011;28233;55.748;48.752;2022-08-03T08:22:39;9.52;;;6.78;;
42602;SDS011;28233;55.748;48.752;2022-08-03T08:24:42;10.90;;;6.72;;
42602;SDS011;28233;55.748;48.752;2022-08-03T08:26:46;8.70;;;7.05;;
42602;SDS011;28233;55.748;48.752;2022-08-03T08:28:48;10.55;;;7.03;;
42602;SDS011;28233;55.748;48.752;2022-08-03T08:30:51;7.57;;;5.53;;
42602;SDS011;28233;55.748;48.752;2022-08-03T08:32:54;9.23;;;6.00;;
42602;SDS011;28233;55.748;48.752;2022-08-03T08:34:58;11.93;;;6.68;;
42602;SDS011;28233;55.748;48.752;2022-08-03T08:37:01;9.43;;;6.88;;
42602;SDS011;28233;55.748;48.752;2022-08-03T08:39:05;8.50;;;6.32;;
42602;SDS011;28233;55.748;48.752;2022-08-03T08:41:08;8.70;;;6.80;;
42602;SDS011;28233;55.748;48.752;2022-08-03T08:43:11;13.18;;;6.47;;
42602;SDS011;28233;55.748;48.752;2022-08-03T08:45:14;11.75;;;6.43;;
42602;SDS011;28233;55.748;48.752;2022-08-03T08:47:17;7.45;;;5.65;;
42602;SDS011;28233;55.748;48.752;2022-08-03T08:49:23;9.70;;;5.63;;
42602;SDS011;28233;55.748;48.752;2022-08-03T08:51:30;8.45;;;5.20;;
42602;SDS011;28233;55.748;48.752;2022-08-03T08:53:56;10.93;;;5.88;;
42602;SDS011;28233;55.748;48.752;2022-08-03T08:56:04;8.55;;;5.75;;
42602;SDS011;28233;55.748;48.752;2022-08-03T08:58:09;8.05;;;4.88;;
42602;SDS011;28233;55.748;48.752;2022-08-03T09:00:21;8.23;;;6.28;;
42602;SDS011;28233;55.748;48.752;2022-08-03T09:02:24;7.95;;;5.88;;
42602;SDS011;28233;55.748;48.752;2022-08-03T09:04:30;8.68;;;5.70;;
42602;SDS011;28233;55.748;48.752;2022-08-03T09:06:34;8.65;;;5.85;;
42602;SDS011;28233;55.748;48.752;2022-08-03T09:08:36;7.88;;;6.10;;
42602;SDS011;28233;55.748;48.752;2022-08-03T09:10:39;13.05;;;5.90;;
42602;SDS011;28233;55.748;48.752;2022-08-03T09:12:43;7.57;;;5.78;;
42602;SDS011;28233;55.748;48.752;2022-08-03T09:14:47;8.55;;;6.18;;
42602;SDS011;28233;55.748;48.752;2022-08-03T09:17:10;5.88;;;4.80;;
42602;SDS011;28233;55.748;48.752;2022-08-03T09:19:18;11.65;;;5.60;;
42602;SDS011;28233;55.748;48.752;2022-08-03T09:21:21;9.05;;;4.50;;
42602;SDS011;28233;55.748;48.752;2022-08-03T09:23:45;6.75;;;4.20;;
42602;SDS011;28233;55.748;48.752;2022-08-03T09:26:04;9.27;;;4.72;;
42602;SDS011;28233;55.748;48.752;2022-08-03T09:28:10;7.03;;;4.70;;
42602;SDS011;28233;55.748;48.752;2022-08-03T09:30:35;5.90;;;4.85;;
42602;SDS011;28233;55.748;48.752;2022-08-03T09:32:38;8.52;;;4.28;;
42602;SDS011;28233;55.748;48.752;2022-08-03T09:34:41;7.63;;;4.72;;
42602;SDS011;28233;55.748;48.752;2022-08-03T09:36:45;6.38;;;4.10;;
42602;SDS011;28233;55.748;48.752;2022-08-03T09:38:59;9.45;;;4.63;;
42602;SDS011;28233;55.748;48.752;2022-08-03T09:41:04;7.25;;;4.22;;
42602;SDS011;28233;55.748;48.752;2022-08-03T09:43:19;5.43;;;3.90;;
42602;SDS011;28233;55.748;48.752;2022-08-03T09:45:26;6.18;;;5.20;;
42602;SDS011;28233;55.748;48.752;2022-08-03T09:47:32;10.35;;;4.45;;
42602;SDS011;28233;55.748;48.752;2022-08-03T09:49:55;12.43;;;4.43;;
42602;SDS011;28233;55.748;48.752;2022-08-03T09:52:15;10.25;;;4.90;;
42602;SDS011;28233;55.748;48.752;2022-08-03T09:54:34;9.05;;;4.93;;
42602;SDS011;28233;55.748;48.752;2022-08-03T09:58:48;5.03;;;4.00;;
42602;SDS011;28233;55.748;48.752;2022-08-03T10:00:53;6.60;;;4.53;;
42602;SDS011;28233;55.748;48.752;2022-08-03T10:03:02;6.53;;;4.07;;
42602;SDS011;28233;55.748;48.752;2022-08-03T10:05:07;8.50;;;4.30;;
42602;SDS011;28233;55.748;48.752;2022-08-03T10:07:21;10.52;;;4.00;;
42602;SDS011;28233;55.748;48.752;2022-08-03T10:09:25;6.97;;;4.13;;
42602;SDS011;28233;55.748;48.752;2022-08-03T10:11:28;4.82;;;3.17;;
42602;SDS011;28233;55.748;48.752;2022-08-03T10:13:42;10.32;;;3.58;;
42602;SDS011;28233;55.748;48.752;2022-08-03T10:15:45;8.52;;;4.15;;
42602;SDS011;28233;55.748;48.752;2022-08-03T10:18:08;4.88;;;3.40;;
42602;SDS011;28233;55.748;48.752;2022-08-03T10:20:11;7.68;;;3.38;;
42602;SDS011;28233;55.748;48.752;2022-08-03T10:22:15;5.78;;;3.60;;
42602;SDS011;28233;55.748;48.752;2022-08-03T10:24:23;5.03;;;3.95;;
42602;SDS011;28233;55.748;48.752;2022-08-03T10:26:29;6.65;;;3.80;;
42602;SDS011;28233;55.748;48.752;2022-08-03T10:28:34;4.80;;;4.00;;
42602;SDS011;28233;55.748;48.752;2022-08-03T10:30:49;5.50;;;3.35;;
42602;SDS011;28233;55.748;48.752;2022-08-03T10:32:54;4.95;;;3.75;;
42602;SDS011;28233;55.748;48.752;2022-08-03T10:35:07;8.18;;;4.00;;
42602;SDS011;28233;55.748;48.752;2022-08-03T10:37:22;4.95;;;3.90;;
42602;SDS011;28233;55.748;48.752;2022-08-03T10:39:27;3.78;;;2.90;;
42602;SDS011;28233;55.748;48.752;2022-08-03T10:41:31;5.75;;;3.20;;
42602;SDS011;28233;55.748;48.752;2022-08-03T10:43:44;3.92;;;2.92;;
42602;SDS011;28233;55.748;48.752;2022-08-03T10:45:57;4.13;;;3.60;;
42602;SDS011;28233;55.748;48.752;2022-08-03T10:48:02;4.75;;;3.22;;
42602;SDS011;28233;55.748;48.752;2022-08-03T10:50:06;4.85;;;3.38;;
42602;SDS011;28233;55.748;48.752;2022-08-03T10:52:10;6.03;;;2.95;;
42602;SDS011;28233;55.748;48.752;2022-08-03T10:56:36;6.10;;;3.47;;
42602;SDS011;28233;55.748;48.752;2022-08-03T10:59:05;3.50;;;2.70;;
42602;SDS011;28233;55.748;48.752;2022-08-03T11:01:10;10.68;;;3.45;;
42602;SDS011;28233;55.748;48.752;2022-08-03T11:03:13;5.93;;;2.85;;
42602;SDS011;28233;55.748;48.752;2022-08-03T11:05:25;7.68;;;2.92;;
42602;SDS011;28233;55.748;48.752;2022-08-03T11:07:30;4.97;;;2.78;;
42602;SDS011;28233;55.748;48.752;2022-08-03T11:09:42;5.03;;;2.88;;
42602;SDS011;28233;55.748;48.752;2022-08-03T11:11:48;4.90;;;3.45;;
42602;SDS011;28233;55.748;48.752;2022-08-03T11:16:18;5.70;;;3.00;;
42602;SDS011;28233;55.748;48.752;2022-08-03T11:18:23;5.97;;;2.67;;
42602;SDS011;28233;55.748;48.752;2022-08-03T11:20:44;4.45;;;2.45;;
42602;SDS011;28233;55.748;48.752;2022-08-03T11:22:48;6.55;;;3.03;;
42602;SDS011;28233;55.748;48.752;2022-08-03T11:24:56;5.22;;;2.92;;
42602;SDS011;28233;55.748;48.752;2022-08-03T11:29:25;3.25;;;2.50;;
42602;SDS011;28233;55.748;48.752;2022-08-03T11:34:03;7.28;;;3.13;;
42602;SDS011;28233;55.748;48.752;2022-08-03T11:36:06;5.90;;;2.72;;
42602;SDS011;28233;55.748;48.752;2022-08-03T11:38:09;3.33;;;2.80;;
42602;SDS011;28233;55.748;48.752;2022-08-03T11:40:31;3.88;;;2.42;;
42602;SDS011;28233;55.748;48.752;2022-08-03T11:42:40;4.43;;;2.80;;
42602;SDS011;28233;55.748;48.752;2022-08-03T11:44:46;5.45;;;2.90;;
42602;SDS011;28233;55.748;48.752;2022-08-03T11:46:50;3.22;;;2.38;;
42602;SDS011;28233;55.748;48.752;2022-08-03T11:48:53;5.43;;;2.55;;
42602;SDS011;28233;55.748;48.752;2022-08-03T11:51:26;8.90;;;2.58;;
42602;SDS011;28233;55.748;48.752;2022-08-03T11:53:30;4.03;;;2.50;;
42602;SDS011;28233;55.748;48.752;2022-08-03T11:55:44;5.47;;;2.78;;
42602;SDS011;28233;55.748;48.752;2022-08-03T11:57:49;6.20;;;2.78;;
42602;SDS011;28233;55.748;48.752;2022-08-03T12:02:22;4.95;;;2.45;;
42602;SDS011;28233;55.748;48.752;2022-08-03T12:04:25;4.05;;;2.80;;
42602;SDS011;28233;55.748;48.752;2022-08-03T12:06:28;11.43;;;2.78;;
42602;SDS011;28233;55.748;48.752;2022-08-03T12:08:31;6.03;;;2.45;;
42602;SDS011;28233;55.748;48.752;2022-08-03T12:10:35;5.28;;;2.60;;
42602;SDS011;28233;55.748;48.752;2022-08-03T12:12:39;3.38;;;2.63;;
42602;SDS011;28233;55.748;48.752;2022-08-03T12:14:47;4.95;;;2.70;;
42602;SDS011;28233;55.748;48.752;2022-08-03T12:16:53;3.85;;;2.28;;
42602;SDS011;28233;55.748;48.752;2022-08-03T12:23:08;3.90;;;2.58;;
42602;SDS011;28233;55.748;48.752;2022-08-03T12:25:19;4.38;;;2.47;;
42602;SDS011;28233;55.748;48.752;2022-08-03T12:27:40;5.18;;;2.55;;
42602;SDS011;28233;55.748;48.752;2022-08-03T12:29:43;5.22;;;2.92;;
42602;SDS011;28233;55.748;48.752;2022-08-03T12:32:00;4.30;;;2.13;;
42602;SDS011;28233;55.748;48.752;2022-08-03T12:34:03;7.72;;;2.55;;
42602;SDS011;28233;55.748;48.752;2022-08-03T12:36:08;2.63;;;2.17;;
42602;SDS011;28233;55.748;48.752;2022-08-03T12:38:12;4.47;;;2.63;;
42602;SDS011;28233;55.748;48.752;2022-08-03T12:40:15;5.78;;;2.40;;
42602;SDS011;28233;55.748;48.752;2022-08-03T12:42:32;2.75;;;2.30;;
42602;SDS011;28233;55.748;48.752;2022-08-03T12:44:37;3.58;;;1.90;;
42602;SDS011;28233;55.748;48.752;2022-08-03T12:46:40;4.50;;;2.20;;
42602;SDS011;28233;55.748;48.752;2022-08-03T12:51:12;5.40;;;2.13;;
42602;SDS011;28233;55.748;48.752;2022-08-03T12:53:16;3.55;;;2.45;;
42602;SDS011;28233;55.748;48.752;2022-08-03T12:55:30;5.00;;;1.88;;
42602;SDS011;28233;55.748;48.752;2022-08-03T12:57:56;2.58;;;2.13;;
42602;SDS011;28233;55.748;48.752;2022-08-03T12:59:59;4.75;;;2.40;;
42602;SDS011;28233;55.748;48.752;2022-08-03T13:02:23;2.97;;;2.13;;
42602;SDS011;28233;55.748;48.752;2022-08-03T13:04:32;3.92;;;2.60;;
42602;SDS011;28233;55.748;48.752;2022-08-03T13:06:36;3.70;;;2.15;;